Time;durP1;ratioP1;P1;durP2;ratioP2;P2;SDS_P1;SDS_P2;PMS_P1;PMS_P2;Temp;Humidity;BMP_temperature;BMP_pressure;BME280_temperature;BME280_humidity;BME280_pressure;Samples;Min_cycle;Max_cycle;Signal;HPM_P1;HPM_P2
2023/06/07 00:00:05;;;;;;;12.60;5.43;;;;;;;;;;5057841;28;20202;-69
2023/06/07 00:02:31;;;;;;;8.10;6.28;;;;;;;;;;5031551;28;20691;-69
2023/06/07 00:04:56;;;;;;;12.73;7.03;;;;;;;;;;5051061;28;20269;-70
2023/06/07 00:07:22;;;;;;;13.43;6.82;;;;;;;;;;5048791;28;20267;-70
2023/06/07 00:09:47;;;;;;;10.52;6.50;;;;;;;;;;5018598;22;1278974;-76
2023/06/07 00:12:13;;;;;;;13.05;6.70;;;;;;;;;;5056139;28;20552;-76
2023/06/07 00:14:38;;;;;;;11.23;6.15;;;;;;;;;;5053607;28;20196;-76
2023/06/07 00:17:03;;;;;;;11.13;5.70;;;;;;;;;;5053192;28;20209;-76
2023/06/07 00:19:29;;;;;;;11.07;5.85;;;;;;;;;;5053729;28;20200;-76
2023/06/07 00:21:55;;;;;;;13.63;6.68;;;;;;;;;;5049583;28;20253;-76
2023/06/07 00:24:20;;;;;;;12.35;5.85;;;;;;;;;;5051346;28;20186;-76
2023/06/07 00:26:46;;;;;;;14.65;6.45;;;;;;;;;;5049251;28;20177;-76
2023/06/07 00:29:11;;;;;;;9.52;5.10;;;;;;;;;;5048316;28;20194;-76
2023/06/07 00:31:37;;;;;;;11.65;6.60;;;;;;;;;;5046102;28;20205;-75
2023/06/07 00:34:02;;;;;;;10.27;6.10;;;;;;;;;;5048230;28;20264;-75
2023/06/07 00:36:28;;;;;;;14.57;6.35;;;;;;;;;;5047692;28;20346;-74
2023/06/07 00:38:53;;;;;;;12.45;6.20;;;;;;;;;;5050401;28;20205;-75
2023/06/07 00:41:18;;;;;;;10.35;5.25;;;;;;;;;;5050149;28;20631;-75
2023/06/07 00:43:44;;;;;;;12.25;6.15;;;;;;;;;;5050397;28;20180;-75
2023/06/07 00:46:11;;;;;;;11.37;6.27;;;;;;;;;;5046368;28;20176;-75
2023/06/07 00:48:36;;;;;;;10.60;6.50;;;;;;;;;;5049028;28;20194;-75
2023/06/07 00:51:02;;;;;;;10.33;5.20;;;;;;;;;;5050167;28;20256;-75
2023/06/07 00:53:27;;;;;;;13.20;5.87;;;;;;;;;;5049041;28;20528;-76
2023/06/07 00:55:52;;;;;;;12.50;6.00;;;;;;;;;;5050693;28;20200;-75
2023/06/07 00:58:18;;;;;;;14.03;6.63;;;;;;;;;;5051089;28;20923;-75
2023/06/07 01:00:43;;;;;;;12.43;6.37;;;;;;;;;;5050732;28;20260;-75
2023/06/07 01:03:09;;;;;;;15.60;5.77;;;;;;;;;;5047887;28;20185;-75
2023/06/07 01:05:34;;;;;;;10.95;6.18;;;;;;;;;;5051513;28;20178;-75
2023/06/07 01:08:00;;;;;;;13.82;5.63;;;;;;;;;;5046850;28;20185;-75
2023/06/07 01:10:25;;;;;;;12.43;6.03;;;;;;;;;;5047117;28;20189;-75
2023/06/07 01:12:53;;;;;;;10.35;5.82;;;;;;;;;;5054281;28;20214;-76
2023/06/07 01:15:19;;;;;;;9.45;5.28;;;;;;;;;;5067424;28;20735;-76
2023/06/07 01:17:45;;;;;;;9.20;6.20;;;;;;;;;;5050576;28;20220;-76
2023/06/07 01:20:11;;;;;;;11.52;5.10;;;;;;;;;;5050928;28;20254;-75
2023/06/07 01:22:37;;;;;;;13.13;5.75;;;;;;;;;;5052096;28;20201;-75
2023/06/07 01:25:02;;;;;;;10.88;5.60;;;;;;;;;;5052553;28;20247;-75
2023/06/07 01:27:30;;;;;;;10.43;5.82;;;;;;;;;;5049027;28;20209;-75
2023/06/07 01:29:56;;;;;;;9.27;5.50;;;;;;;;;;5045506;28;20703;-75
2023/06/07 01:32:22;;;;;;;13.67;6.10;;;;;;;;;;5050288;28;20212;-76
2023/06/07 01:34:48;;;;;;;7.37;4.50;;;;;;;;;;5051709;28;20182;-75
2023/06/07 01:37:13;;;;;;;9.35;5.10;;;;;;;;;;5048850;28;20183;-75
2023/06/07 01:39:39;;;;;;;13.40;5.40;;;;;;;;;;5049727;28;20220;-76
2023/06/07 01:42:06;;;;;;;8.43;4.97;;;;;;;;;;5049614;28;20212;-75
2023/06/07 01:44:31;;;;;;;10.03;4.53;;;;;;;;;;5049454;28;20244;-75
2023/06/07 01:46:56;;;;;;;10.87;4.90;;;;;;;;;;5051482;28;20173;-75
2023/06/07 01:49:22;;;;;;;10.57;4.97;;;;;;;;;;5051415;28;20198;-76
2023/06/07 01:51:47;;;;;;;15.37;5.30;;;;;;;;;;5050532;28;20178;-75
2023/06/07 01:54:14;;;;;;;10.73;5.00;;;;;;;;;;5051124;28;20181;-75
2023/06/07 01:56:56;;;;;;;9.30;4.80;;;;;;;;;;5049166;28;20161;-75
2023/06/07 01:59:40;;;;;;;12.83;5.10;;;;;;;;;;5049592;28;20197;-75
2023/06/07 02:02:17;;;;;;;8.07;4.43;;;;;;;;;;5052407;28;20326;-75
2023/06/07 02:04:44;;;;;;;9.80;4.93;;;;;;;;;;5054470;28;20204;-75
2023/06/07 02:07:12;;;;;;;10.43;5.60;;;;;;;;;;5054760;28;20682;-75
2023/06/07 02:09:38;;;;;;;14.03;5.33;;;;;;;;;;5052280;28;20709;-75
2023/06/07 02:12:05;;;;;;;8.07;4.93;;;;;;;;;;5053822;28;20181;-75
2023/06/07 02:14:30;;;;;;;8.10;5.00;;;;;;;;;;5052583;28;20651;-75
2023/06/07 02:16:56;;;;;;;9.63;4.82;;;;;;;;;;5054468;28;20178;-75
2023/06/07 02:19:21;;;;;;;11.67;5.50;;;;;;;;;;5052719;28;20197;-75
2023/06/07 02:21:46;;;;;;;11.33;4.40;;;;;;;;;;5051913;28;20242;-75
2023/06/07 02:24:12;;;;;;;11.63;5.60;;;;;;;;;;5053408;28;20224;-75
2023/06/07 02:26:37;;;;;;;14.10;5.80;;;;;;;;;;5054455;28;20209;-75
2023/06/07 02:29:03;;;;;;;18.30;5.33;;;;;;;;;;5055432;28;20197;-75
2023/06/07 02:31:28;;;;;;;9.13;4.97;;;;;;;;;;5049049;28;20182;-75
2023/06/07 02:33:53;;;;;;;13.40;5.73;;;;;;;;;;5051300;28;20192;-75
2023/06/07 02:36:21;;;;;;;11.07;5.30;;;;;;;;;;5052911;28;20182;-75
2023/06/07 02:38:46;;;;;;;15.00;5.50;;;;;;;;;;5054946;28;20204;-76
2023/06/07 02:41:11;;;;;;;11.20;4.93;;;;;;;;;;5053443;28;20182;-75
2023/06/07 02:43:36;;;;;;;11.70;4.97;;;;;;;;;;5052059;28;20178;-75
2023/06/07 02:46:02;;;;;;;13.67;5.73;;;;;;;;;;5054069;28;20178;-75
2023/06/07 02:48:27;;;;;;;8.07;4.47;;;;;;;;;;5052756;28;20209;-76
2023/06/07 02:50:52;;;;;;;11.37;4.73;;;;;;;;;;5054275;28;20186;-75
2023/06/07 02:53:18;;;;;;;9.80;5.00;;;;;;;;;;5054187;28;20177;-75
2023/06/07 02:55:43;;;;;;;10.23;4.97;;;;;;;;;;5054834;28;20181;-76
2023/06/07 02:58:08;;;;;;;14.60;4.60;;;;;;;;;;5049709;28;20221;-76
2023/06/07 03:00:34;;;;;;;7.40;4.80;;;;;;;;;;5053459;28;20644;-75
2023/06/07 03:02:59;;;;;;;8.50;4.53;;;;;;;;;;5051140;28;20300;-76
2023/06/07 03:05:28;;;;;;;9.50;5.40;;;;;;;;;;5054081;28;20178;-76
2023/06/07 03:07:56;;;;;;;15.60;5.17;;;;;;;;;;5049505;28;20174;-76
2023/06/07 03:10:21;;;;;;;8.60;4.80;;;;;;;;;;5053228;28;20225;-76
2023/06/07 03:12:47;;;;;;;11.03;4.93;;;;;;;;;;5053423;28;20705;-76
2023/06/07 03:15:12;;;;;;;17.77;4.97;;;;;;;;;;5055392;28;20200;-76
2023/06/07 03:17:40;;;;;;;8.83;4.40;;;;;;;;;;5050139;28;20733;-75
2023/06/07 03:20:07;;;;;;;7.50;4.80;;;;;;;;;;5049426;28;20208;-76
2023/06/07 03:22:32;;;;;;;12.40;4.33;;;;;;;;;;5047147;28;20614;-76
2023/06/07 03:24:57;;;;;;;10.87;4.10;;;;;;;;;;5050411;28;20170;-75
2023/06/07 03:27:23;;;;;;;9.30;4.83;;;;;;;;;;5052403;28;20181;-75
2023/06/07 03:29:49;;;;;;;13.00;4.57;;;;;;;;;;5053297;28;20248;-74
2023/06/07 03:32:14;;;;;;;9.93;4.23;;;;;;;;;;5049700;28;20181;-75
2023/06/07 03:34:41;;;;;;;9.00;4.07;;;;;;;;;;5051747;28;20185;-75
2023/06/07 03:37:06;;;;;;;7.93;4.83;;;;;;;;;;5052119;28;20232;-76
2023/06/07 03:39:32;;;;;;;8.20;4.60;;;;;;;;;;5050897;28;20214;-75
2023/06/07 03:41:57;;;;;;;11.20;4.57;;;;;;;;;;5053002;28;20193;-76
2023/06/07 03:44:22;;;;;;;13.20;4.27;;;;;;;;;;5048005;28;20178;-76
2023/06/07 03:46:48;;;;;;;11.77;3.97;;;;;;;;;;5053697;28;20585;-76
2023/06/07 03:49:13;;;;;;;10.80;3.83;;;;;;;;;;5052878;28;20348;-76
2023/06/07 03:51:38;;;;;;;10.00;4.20;;;;;;;;;;5053210;28;20247;-76
2023/06/07 03:54:04;;;;;;;10.87;4.33;;;;;;;;;;5050747;28;20276;-76
2023/06/07 03:56:29;;;;;;;8.80;4.50;;;;;;;;;;5047328;28;20239;-75
2023/06/07 03:58:54;;;;;;;10.33;4.17;;;;;;;;;;5052171;28;20702;-77
2023/06/07 04:01:21;;;;;;;14.87;4.10;;;;;;;;;;5052236;28;20201;-76
2023/06/07 04:03:46;;;;;;;13.07;5.63;;;;;;;;;;5053808;28;20257;-75
2023/06/07 04:06:12;;;;;;;10.57;4.23;;;;;;;;;;5050768;28;20189;-75
2023/06/07 04:08:37;;;;;;;8.70;3.90;;;;;;;;;;5050443;28;20221;-77
2023/06/07 04:11:02;;;;;;;9.63;3.80;;;;;;;;;;5052543;28;20174;-77
2023/06/07 04:13:27;;;;;;;7.77;4.07;;;;;;;;;;5051832;28;20181;-76
2023/06/07 04:15:52;;;;;;;7.63;4.13;;;;;;;;;;5048305;28;20181;-76
2023/06/07 04:18:18;;;;;;;14.20;5.43;;;;;;;;;;5052657;28;20201;-76
2023/06/07 04:20:43;;;;;;;11.97;4.10;;;;;;;;;;5051675;28;20564;-76
2023/06/07 04:23:08;;;;;;;16.60;4.80;;;;;;;;;;5048326;28;20312;-76
2023/06/07 04:25:33;;;;;;;9.47;4.43;;;;;;;;;;5049744;28;20185;-76
2023/06/07 04:28:00;;;;;;;8.63;4.20;;;;;;;;;;5051946;28;20193;-76
2023/06/07 04:30:34;;;;;;;15.90;5.07;;;;;;;;;;5049758;28;20181;-76
2023/06/07 04:33:03;;;;;;;12.30;4.50;;;;;;;;;;5049230;28;20228;-76
2023/06/07 04:35:31;;;;;;;10.70;5.00;;;;;;;;;;5051533;28;20236;-76
2023/06/07 04:37:57;;;;;;;11.93;5.50;;;;;;;;;;5052835;28;20178;-76
2023/06/07 04:40:23;;;;;;;5.87;4.17;;;;;;;;;;5051783;28;20227;-76
2023/06/07 04:42:54;;;;;;;9.63;4.70;;;;;;;;;;5045260;28;20209;-76
2023/06/07 04:45:28;;;;;;;13.10;4.20;;;;;;;;;;5050887;28;20188;-76
2023/06/07 04:47:53;;;;;;;10.63;4.40;;;;;;;;;;5048843;28;20613;-76
2023/06/07 04:50:20;;;;;;;11.35;4.30;;;;;;;;;;5050703;28;20231;-76
2023/06/07 04:52:49;;;;;;;11.47;4.90;;;;;;;;;;5047638;28;20216;-76
2023/06/07 04:55:14;;;;;;;12.50;5.22;;;;;;;;;;5050005;28;20185;-76
2023/06/07 04:57:40;;;;;;;14.00;5.35;;;;;;;;;;5046953;28;20192;-76
2023/06/07 05:00:07;;;;;;;11.43;5.90;;;;;;;;;;5045734;28;20216;-76
2023/06/07 05:02:38;;;;;;;12.35;5.28;;;;;;;;;;5064397;28;20765;-76
2023/06/07 05:05:04;;;;;;;17.90;7.27;;;;;;;;;;5050544;28;20670;-76
2023/06/07 05:07:32;;;;;;;13.35;4.60;;;;;;;;;;5057103;28;20197;-76
2023/06/07 05:09:57;;;;;;;9.88;4.47;;;;;;;;;;5051163;28;20215;-76
2023/06/07 05:12:23;;;;;;;11.93;4.63;;;;;;;;;;5051745;28;20586;-76
2023/06/07 05:14:48;;;;;;;10.45;4.65;;;;;;;;;;5052617;28;20232;-76
2023/06/07 05:17:19;;;;;;;8.90;4.40;;;;;;;;;;5050323;28;20186;-76
2023/06/07 05:19:44;;;;;;;8.93;3.85;;;;;;;;;;5050165;28;20709;-76
2023/06/07 05:22:09;;;;;;;9.70;3.80;;;;;;;;;;5049256;28;20201;-76
2023/06/07 05:24:34;;;;;;;10.77;4.65;;;;;;;;;;5050714;28;20209;-76
2023/06/07 05:26:59;;;;;;;8.35;4.28;;;;;;;;;;5048641;28;20236;-76
2023/06/07 05:29:25;;;;;;;13.23;4.22;;;;;;;;;;5051815;28;20236;-76
2023/06/07 05:31:50;;;;;;;7.45;3.95;;;;;;;;;;5050882;28;20653;-76
2023/06/07 05:34:16;;;;;;;7.68;3.78;;;;;;;;;;5052798;28;20182;-76
2023/06/07 05:36:42;;;;;;;10.15;4.15;;;;;;;;;;5042421;28;20225;-76
2023/06/07 05:39:07;;;;;;;10.25;4.07;;;;;;;;;;5055840;28;20193;-76
2023/06/07 05:41:32;;;;;;;7.10;3.40;;;;;;;;;;5055352;28;20608;-76
2023/06/07 05:43:57;;;;;;;7.68;3.50;;;;;;;;;;5052410;28;20185;-76
2023/06/07 05:46:23;;;;;;;11.52;3.50;;;;;;;;;;5049597;28;20177;-76
2023/06/07 05:48:48;;;;;;;8.63;3.53;;;;;;;;;;5054529;28;20221;-76
2023/06/07 05:51:14;;;;;;;10.55;4.18;;;;;;;;;;5058999;28;20193;-76
2023/06/07 05:53:39;;;;;;;7.60;3.95;;;;;;;;;;5056884;28;20178;-76
2023/06/07 05:56:05;;;;;;;11.38;3.90;;;;;;;;;;5054906;28;20602;-76
2023/06/07 05:58:31;;;;;;;9.23;3.45;;;;;;;;;;5054326;28;20233;-76
2023/06/07 06:00:56;;;;;;;7.10;4.32;;;;;;;;;;5044045;28;20194;-76
2023/06/07 06:03:21;;;;;;;10.13;5.32;;;;;;;;;;5053158;28;20205;-76
2023/06/07 06:05:47;;;;;;;9.43;4.32;;;;;;;;;;5053644;28;20186;-74
2023/06/07 06:10:44;;;;;;;11.70;4.00;;;;;;;;;;5028105;28;20222;-69
2023/06/07 06:13:10;;;;;;;7.97;4.10;;;;;;;;;;5029774;28;20205;-69
2023/06/07 06:15:35;;;;;;;15.32;4.22;;;;;;;;;;5029713;28;20182;-69
2023/06/07 06:18:01;;;;;;;15.27;4.45;;;;;;;;;;5025465;28;20540;-69
2023/06/07 06:20:26;;;;;;;8.45;3.47;;;;;;;;;;5022943;28;20206;-69
2023/06/07 06:22:51;;;;;;;7.93;4.03;;;;;;;;;;5026560;28;20206;-69
2023/06/07 06:25:16;;;;;;;7.07;3.25;;;;;;;;;;5028965;28;20198;-69
2023/06/07 06:27:42;;;;;;;7.28;3.13;;;;;;;;;;5021684;28;20191;-69
2023/06/07 06:30:08;;;;;;;9.68;4.43;;;;;;;;;;5023936;28;20206;-68
2023/06/07 06:32:33;;;;;;;10.77;4.07;;;;;;;;;;5027964;28;20675;-68
2023/06/07 06:34:58;;;;;;;13.13;4.35;;;;;;;;;;5023274;28;20277;-69
2023/06/07 06:37:23;;;;;;;14.65;4.63;;;;;;;;;;5033445;28;20181;-69
2023/06/07 06:39:51;;;;;;;10.15;3.83;;;;;;;;;;5031885;28;20198;-69
2023/06/07 06:42:16;;;;;;;9.23;4.10;;;;;;;;;;5029655;28;20683;-69
2023/06/07 06:44:41;;;;;;;8.18;3.78;;;;;;;;;;5033648;28;20178;-69
2023/06/07 06:47:06;;;;;;;7.53;3.70;;;;;;;;;;5027580;28;20224;-69
2023/06/07 06:49:31;;;;;;;9.02;4.15;;;;;;;;;;5031939;28;20691;-69
2023/06/07 06:51:57;;;;;;;10.27;3.03;;;;;;;;;;5026986;28;20263;-69
2023/06/07 06:54:22;;;;;;;7.88;3.35;;;;;;;;;;5019245;28;20226;-69
2023/06/07 06:56:47;;;;;;;5.53;3.60;;;;;;;;;;5038631;28;20228;-69
2023/06/07 06:59:12;;;;;;;12.20;3.50;;;;;;;;;;5021119;28;20797;-68
2023/06/07 07:01:45;;;;;;;8.75;3.25;;;;;;;;;;5018742;28;20656;-69
2023/06/07 07:04:11;;;;;;;9.40;3.28;;;;;;;;;;5025423;28;20687;-69
2023/06/07 07:06:36;;;;;;;10.65;3.78;;;;;;;;;;5023602;28;20206;-68
2023/06/07 07:09:01;;;;;;;11.43;2.80;;;;;;;;;;5021284;28;20692;-69
2023/06/07 07:11:27;;;;;;;9.80;3.17;;;;;;;;;;5026038;28;20667;-68
2023/06/07 07:13:52;;;;;;;7.90;3.50;;;;;;;;;;5019821;28;20551;-69
2023/06/07 07:16:17;;;;;;;10.13;2.90;;;;;;;;;;5026562;28;20183;-69
2023/06/07 07:18:42;;;;;;;7.47;3.50;;;;;;;;;;5021634;28;20474;-68
2023/06/07 07:21:07;;;;;;;9.68;3.25;;;;;;;;;;5017557;28;20607;-70
2023/06/07 07:23:33;;;;;;;8.63;3.00;;;;;;;;;;5014179;28;20186;-69
2023/06/07 07:25:58;;;;;;;4.85;2.63;;;;;;;;;;5021005;28;20205;-70
2023/06/07 07:28:23;;;;;;;4.55;3.30;;;;;;;;;;5025985;28;20175;-69
2023/06/07 07:30:48;;;;;;;6.82;3.03;;;;;;;;;;5018722;28;20240;-69
2023/06/07 07:33:13;;;;;;;8.02;2.97;;;;;;;;;;5017067;28;20191;-70
2023/06/07 07:35:39;;;;;;;6.78;2.95;;;;;;;;;;5021114;28;20183;-69
2023/06/07 07:38:05;;;;;;;10.45;3.30;;;;;;;;;;5021449;28;20221;-70
2023/06/07 07:40:30;;;;;;;10.32;3.75;;;;;;;;;;5023544;28;20740;-70
2023/06/07 07:42:56;;;;;;;9.55;3.38;;;;;;;;;;5020847;28;20285;-70
2023/06/07 07:45:22;;;;;;;11.50;3.13;;;;;;;;;;5026962;28;20190;-70
2023/06/07 07:47:47;;;;;;;5.57;3.00;;;;;;;;;;5026256;28;20174;-69
2023/06/07 07:50:12;;;;;;;8.85;3.20;;;;;;;;;;5029762;28;20526;-69
2023/06/07 07:52:37;;;;;;;8.45;2.75;;;;;;;;;;5030630;28;20554;-70
2023/06/07 07:55:03;;;;;;;7.63;3.00;;;;;;;;;;5025408;28;20622;-69
2023/06/07 07:57:28;;;;;;;5.43;3.03;;;;;;;;;;5023661;28;20435;-71
2023/06/07 07:59:53;;;;;;;8.52;2.95;;;;;;;;;;5027803;28;20190;-70
2023/06/07 08:02:18;;;;;;;10.30;3.42;;;;;;;;;;5030281;28;20220;-69
2023/06/07 08:04:44;;;;;;;7.23;3.23;;;;;;;;;;5024811;28;20261;-70
2023/06/07 08:07:10;;;;;;;8.98;2.90;;;;;;;;;;5018601;28;20471;-70
2023/06/07 08:09:35;;;;;;;6.90;2.92;;;;;;;;;;5013599;28;20217;-70
2023/06/07 08:12:00;;;;;;;7.90;2.83;;;;;;;;;;5019475;28;20186;-70
2023/06/07 08:14:25;;;;;;;5.95;2.95;;;;;;;;;;5021808;28;20458;-70
2023/06/07 08:16:50;;;;;;;6.78;3.22;;;;;;;;;;5029110;28;20217;-70
2023/06/07 08:19:16;;;;;;;7.50;2.33;;;;;;;;;;5023697;28;20218;-70
2023/06/07 08:21:43;;;;;;;6.97;2.75;;;;;;;;;;5022859;28;20213;-70
2023/06/07 08:24:09;;;;;;;6.75;2.83;;;;;;;;;;5018101;28;20179;-70
2023/06/07 08:26:34;;;;;;;8.65;2.55;;;;;;;;;;5014962;28;20249;-69
2023/06/07 08:28:59;;;;;;;6.73;3.13;;;;;;;;;;5014893;28;20681;-70
2023/06/07 08:31:27;;;;;;;6.03;2.42;;;;;;;;;;5036718;28;20428;-70
2023/06/07 08:33:52;;;;;;;9.10;2.80;;;;;;;;;;5018109;28;20443;-70
2023/06/07 08:36:17;;;;;;;9.67;3.53;;;;;;;;;;5022617;28;20178;-70
2023/06/07 08:38:42;;;;;;;8.32;4.40;;;;;;;;;;5019431;28;20439;-70
2023/06/07 08:41:08;;;;;;;7.90;3.35;;;;;;;;;;5017086;28;20206;-71
2023/06/07 08:43:33;;;;;;;9.70;3.20;;;;;;;;;;5024262;28;20231;-70
2023/06/07 08:46:00;;;;;;;11.55;2.40;;;;;;;;;;5017609;28;20451;-70
2023/06/07 08:48:25;;;;;;;7.53;2.75;;;;;;;;;;5019153;28;20555;-70
2023/06/07 08:50:52;;;;;;;6.90;2.97;;;;;;;;;;5023508;28;20166;-70
2023/06/07 08:53:24;;;;;;;8.95;3.17;;;;;;;;;;5024254;28;20183;-70
2023/06/07 08:55:49;;;;;;;9.45;3.13;;;;;;;;;;5025099;28;20186;-70
2023/06/07 08:58:15;;;;;;;5.80;2.50;;;;;;;;;;5014191;28;20692;-70
2023/06/07 09:00:40;;;;;;;7.80;2.90;;;;;;;;;;5023640;28;20183;-71
2023/06/07 09:03:06;;;;;;;8.90;2.63;;;;;;;;;;5024123;28;20190;-70
2023/06/07 09:05:31;;;;;;;6.68;2.45;;;;;;;;;;5024346;28;20179;-70
2023/06/07 09:07:57;;;;;;;6.07;2.88;;;;;;;;;;5021214;28;20183;-71
2023/06/07 09:10:22;;;;;;;8.60;3.20;;;;;;;;;;5014313;28;20310;-71
2023/06/07 09:12:48;;;;;;;4.20;2.42;;;;;;;;;;5021127;28;20640;-70
2023/06/07 09:15:17;;;;;;;7.70;2.72;;;;;;;;;;5028210;28;20185;-70
2023/06/07 09:17:54;;;;;;;9.25;2.63;;;;;;;;;;5029384;28;20273;-71
2023/06/07 09:20:20;;;;;;;7.25;3.00;;;;;;;;;;5023588;28;20255;-68
2023/06/07 09:22:56;;;;;;;8.82;3.30;;;;;;;;;;5032573;28;20203;-71
2023/06/07 09:25:21;;;;;;;9.18;3.30;;;;;;;;;;5022219;28;20561;-70
2023/06/07 09:27:49;;;;;;;9.88;2.95;;;;;;;;;;5022541;28;20181;-70
2023/06/07 09:30:14;;;;;;;6.90;3.15;;;;;;;;;;5026936;28;20237;-71
2023/06/07 09:32:40;;;;;;;12.10;3.17;;;;;;;;;;5024719;28;20206;-70
2023/06/07 09:35:10;;;;;;;7.90;3.30;;;;;;;;;;5011220;28;20564;-70
2023/06/07 09:37:45;;;;;;;5.85;2.53;;;;;;;;;;5017565;28;20424;-70
2023/06/07 09:40:12;;;;;;;10.48;2.75;;;;;;;;;;5018412;28;20664;-71
2023/06/07 09:42:38;;;;;;;7.30;2.58;;;;;;;;;;5025168;28;20209;-71
2023/06/07 09:45:17;;;;;;;5.50;2.47;;;;;;;;;;5018365;28;20181;-70
2023/06/07 09:47:42;;;;;;;4.90;2.90;;;;;;;;;;5015435;28;20227;-71
2023/06/07 09:50:14;;;;;;;5.68;3.10;;;;;;;;;;5020779;28;20198;-72
2023/06/07 09:52:39;;;;;;;6.38;3.30;;;;;;;;;;5020490;28;20260;-70
2023/06/07 09:55:06;;;;;;;4.47;2.47;;;;;;;;;;5021209;28;20186;-69
2023/06/07 09:57:32;;;;;;;10.55;2.97;;;;;;;;;;5023237;28;20182;-70
2023/06/07 10:00:08;;;;;;;7.22;2.63;;;;;;;;;;5014575;28;20203;-70
2023/06/07 10:02:33;;;;;;;7.40;3.00;;;;;;;;;;5022768;28;20177;-69
2023/06/07 10:05:00;;;;;;;8.00;3.35;;;;;;;;;;5028747;28;20190;-68
2023/06/07 10:07:42;;;;;;;6.95;3.00;;;;;;;;;;5022704;28;20183;-68
2023/06/07 10:10:11;;;;;;;5.57;2.55;;;;;;;;;;5024542;28;20219;-68
2023/06/07 10:12:40;;;;;;;5.65;2.42;;;;;;;;;;5020913;28;20676;-69
2023/06/07 10:15:07;;;;;;;9.90;3.08;;;;;;;;;;5023112;28;20182;-69
2023/06/07 10:17:55;;;;;;;6.28;2.72;;;;;;;;;;5027130;28;20236;-67
2023/06/07 10:20:30;;;;;;;4.50;3.55;;;;;;;;;;5016765;28;20611;-68
2023/06/07 10:22:58;;;;;;;6.30;2.47;;;;;;;;;;5025223;28;20335;-68
2023/06/07 10:25:24;;;;;;;3.20;2.38;;;;;;;;;;5026800;28;20179;-69
2023/06/07 10:27:50;;;;;;;4.82;2.63;;;;;;;;;;5028834;28;20186;-68
2023/06/07 10:30:16;;;;;;;8.10;2.85;;;;;;;;;;5022091;28;20630;-68
2023/06/07 10:32:42;;;;;;;6.63;2.85;;;;;;;;;;5022506;28;20591;-68
2023/06/07 10:35:08;;;;;;;4.00;2.78;;;;;;;;;;5023052;28;20185;-68
2023/06/07 10:37:35;;;;;;;7.07;2.88;;;;;;;;;;5026958;28;20205;-67
2023/06/07 10:40:05;;;;;;;5.68;2.30;;;;;;;;;;5025322;28;20207;-68
2023/06/07 10:42:32;;;;;;;6.40;3.03;;;;;;;;;;5018220;28;20381;-68
2023/06/07 10:44:57;;;;;;;5.13;2.60;;;;;;;;;;5022367;28;20187;-69
2023/06/07 10:47:26;;;;;;;8.80;2.75;;;;;;;;;;5028274;28;20193;-69
2023/06/07 10:49:51;;;;;;;4.90;2.58;;;;;;;;;;5028229;28;20726;-69
2023/06/07 10:52:17;;;;;;;3.78;2.58;;;;;;;;;;5025256;28;20226;-68
2023/06/07 10:54:43;;;;;;;6.85;2.97;;;;;;;;;;5020303;28;20548;-69
2023/06/07 10:57:08;;;;;;;7.22;2.80;;;;;;;;;;5029569;28;20244;-69
2023/06/07 10:59:34;;;;;;;6.00;2.78;;;;;;;;;;5023299;28;20199;-69
2023/06/07 11:02:18;;;;;;;6.45;2.75;;;;;;;;;;5016942;28;20186;-69
2023/06/07 11:04:50;;;;;;;6.85;2.90;;;;;;;;;;5017471;28;20182;-69
2023/06/07 11:07:20;;;;;;;8.38;3.25;;;;;;;;;;5021597;28;20190;-70
2023/06/07 11:09:46;;;;;;;4.95;2.90;;;;;;;;;;5024496;28;20240;-69
2023/06/07 11:12:34;;;;;;;6.05;2.88;;;;;;;;;;5027112;28;20206;-69
2023/06/07 11:15:21;;;;;;;8.50;2.72;;;;;;;;;;5019368;28;20618;-69
2023/06/07 11:17:51;;;;;;;5.22;3.00;;;;;;;;;;5028583;28;20170;-69
2023/06/07 11:20:36;;;;;;;3.97;2.53;;;;;;;;;;5029814;28;20200;-69
2023/06/07 11:23:17;;;;;;;8.82;3.13;;;;;;;;;;5026168;28;20261;-68
2023/06/07 11:25:42;;;;;;;4.82;2.75;;;;;;;;;;5028278;28;20182;-68
2023/06/07 11:28:07;;;;;;;5.47;2.33;;;;;;;;;;5020532;28;20228;-68
2023/06/07 11:30:33;;;;;;;9.75;2.97;;;;;;;;;;5022925;28;20451;-69
2023/06/07 11:32:58;;;;;;;3.90;2.63;;;;;;;;;;5026918;28;20206;-69
2023/06/07 11:35:23;;;;;;;5.27;2.60;;;;;;;;;;5026151;28;20180;-69
2023/06/07 11:37:48;;;;;;;5.67;3.37;;;;;;;;;;5016931;28;20176;-69
2023/06/07 11:40:13;;;;;;;4.63;2.80;;;;;;;;;;5015132;28;20699;-70
2023/06/07 11:42:39;;;;;;;7.22;3.53;;;;;;;;;;5024494;28;20189;-69
2023/06/07 11:45:04;;;;;;;4.57;2.38;;;;;;;;;;5027211;28;20182;-70
2023/06/07 11:47:29;;;;;;;6.95;3.10;;;;;;;;;;5024462;28;20199;-70
2023/06/07 11:49:54;;;;;;;7.70;2.77;;;;;;;;;;5029142;28;20194;-69
2023/06/07 11:52:20;;;;;;;7.10;2.53;;;;;;;;;;5010999;28;20691;-69
2023/06/07 11:54:45;;;;;;;6.35;3.00;;;;;;;;;;5022955;28;20170;-70
2023/06/07 11:57:10;;;;;;;5.33;2.50;;;;;;;;;;5025605;28;20174;-69
2023/06/07 11:59:36;;;;;;;4.78;2.38;;;;;;;;;;5018647;28;20860;-70
2023/06/07 12:02:01;;;;;;;5.37;2.40;;;;;;;;;;5025561;28;20182;-69
2023/06/07 12:04:26;;;;;;;10.23;2.38;;;;;;;;;;5027930;28;20431;-69
2023/06/07 12:06:52;;;;;;;6.55;2.58;;;;;;;;;;5019894;28;20659;-69
2023/06/07 12:09:18;;;;;;;7.17;2.40;;;;;;;;;;5018271;28;20687;-69
2023/06/07 12:11:44;;;;;;;7.72;2.95;;;;;;;;;;5015099;28;20492;-69
2023/06/07 12:14:10;;;;;;;8.73;2.97;;;;;;;;;;5025471;28;20189;-69
2023/06/07 12:16:38;;;;;;;7.03;2.83;;;;;;;;;;5025241;28;20171;-69
2023/06/07 12:19:04;;;;;;;9.15;2.83;;;;;;;;;;5019552;28;20202;-69
2023/06/07 12:21:29;;;;;;;9.95;2.85;;;;;;;;;;5024394;28;20179;-69
2023/06/07 12:23:54;;;;;;;8.13;2.53;;;;;;;;;;5019790;28;20209;-69
2023/06/07 12:26:25;;;;;;;5.05;2.35;;;;;;;;;;5023401;28;20446;-69
2023/06/07 12:28:50;;;;;;;4.53;2.40;;;;;;;;;;5025601;28;20206;-69
2023/06/07 12:31:26;;;;;;;5.13;2.60;;;;;;;;;;5021287;28;20182;-69
2023/06/07 12:34:10;;;;;;;5.28;2.80;;;;;;;;;;5017704;28;20193;-68
2023/06/07 12:36:37;;;;;;;5.85;2.55;;;;;;;;;;5039073;28;20640;-69
2023/06/07 12:39:04;;;;;;;6.47;3.50;;;;;;;;;;5027129;28;20186;-70
2023/06/07 12:41:29;;;;;;;5.82;2.70;;;;;;;;;;5027589;28;20663;-69
2023/06/07 12:43:57;;;;;;;8.95;3.03;;;;;;;;;;5022185;28;20184;-69
2023/06/07 12:46:24;;;;;;;8.77;3.47;;;;;;;;;;5042492;28;20529;-70
2023/06/07 12:48:50;;;;;;;7.88;2.85;;;;;;;;;;5026787;28;20592;-67
2023/06/07 12:51:16;;;;;;;7.13;2.73;;;;;;;;;;5026696;28;20181;-68
2023/06/07 12:53:41;;;;;;;6.65;2.35;;;;;;;;;;5016176;28;20471;-70
2023/06/07 12:56:06;;;;;;;6.65;2.67;;;;;;;;;;5013948;28;20182;-70
2023/06/07 12:58:32;;;;;;;6.83;3.43;;;;;;;;;;5007398;28;20198;-71
2023/06/07 13:00:57;;;;;;;7.32;2.75;;;;;;;;;;5015303;28;20426;-71
2023/06/07 13:03:23;;;;;;;5.70;3.15;;;;;;;;;;5017700;28;20182;-67
2023/06/07 13:05:49;;;;;;;5.75;2.85;;;;;;;;;;5015295;28;20177;-70
2023/06/07 13:08:14;;;;;;;5.63;2.60;;;;;;;;;;5017517;28;20182;-69
2023/06/07 13:10:39;;;;;;;6.93;3.22;;;;;;;;;;5024991;28;20198;-70
2023/06/07 13:13:06;;;;;;;4.57;2.80;;;;;;;;;;5022289;28;20220;-69
2023/06/07 13:15:31;;;;;;;6.38;2.72;;;;;;;;;;5024792;28;20202;-68
2023/06/07 13:17:56;;;;;;;8.47;3.10;;;;;;;;;;5030526;28;20170;-69
2023/06/07 13:20:21;;;;;;;6.93;2.50;;;;;;;;;;5024550;28;20226;-69
2023/06/07 13:22:47;;;;;;;7.20;2.95;;;;;;;;;;5021545;28;20800;-69
2023/06/07 13:25:12;;;;;;;6.63;2.90;;;;;;;;;;5014658;28;20202;-69
2023/06/07 13:27:38;;;;;;;4.53;2.42;;;;;;;;;;5020015;28;20429;-70
2023/06/07 13:30:07;;;;;;;5.78;2.60;;;;;;;;;;5024774;28;20216;-70
2023/06/07 13:32:32;;;;;;;6.82;3.08;;;;;;;;;;5015593;28;20269;-68
2023/06/07 13:34:58;;;;;;;8.80;3.03;;;;;;;;;;5020202;28;20195;-69
2023/06/07 13:37:23;;;;;;;6.75;2.70;;;;;;;;;;5025300;28;20884;-69
2023/06/07 13:39:48;;;;;;;6.50;2.67;;;;;;;;;;5021586;28;20221;-69
2023/06/07 13:42:13;;;;;;;6.63;3.05;;;;;;;;;;5027954;28;20924;-69
2023/06/07 13:44:39;;;;;;;6.57;3.23;;;;;;;;;;5025148;28;20178;-69
2023/06/07 13:47:04;;;;;;;9.35;2.70;;;;;;;;;;5020405;28;20510;-69
2023/06/07 13:49:29;;;;;;;7.32;2.90;;;;;;;;;;5018021;28;20257;-69
2023/06/07 13:51:55;;;;;;;10.20;2.63;;;;;;;;;;5025726;28;20658;-68
2023/06/07 13:54:20;;;;;;;10.63;2.92;;;;;;;;;;5020158;28;20415;-68
2023/06/07 13:56:45;;;;;;;8.45;3.30;;;;;;;;;;5023475;28;20219;-68
2023/06/07 13:59:11;;;;;;;3.00;2.27;;;;;;;;;;5023138;28;20571;-69
2023/06/07 14:01:37;;;;;;;8.83;3.17;;;;;;;;;;5021853;28;20257;-69
2023/06/07 14:04:02;;;;;;;5.43;2.75;;;;;;;;;;5020497;28;20533;-68
2023/06/07 14:06:28;;;;;;;6.30;2.85;;;;;;;;;;5020679;28;20253;-68
2023/06/07 14:08:53;;;;;;;5.68;2.53;;;;;;;;;;5029556;28;20215;-68
2023/06/07 14:11:18;;;;;;;6.47;2.30;;;;;;;;;;5024835;28;20606;-67
2023/06/07 14:13:44;;;;;;;7.90;2.63;;;;;;;;;;5025993;28;20566;-69
2023/06/07 14:16:10;;;;;;;8.15;3.17;;;;;;;;;;5031597;28;20451;-68
2023/06/07 14:18:35;;;;;;;8.25;2.90;;;;;;;;;;5030847;28;20190;-69
2023/06/07 14:21:00;;;;;;;8.70;2.72;;;;;;;;;;5028889;28;20645;-68
2023/06/07 14:23:26;;;;;;;6.63;2.47;;;;;;;;;;5029650;28;20166;-69
2023/06/07 14:25:51;;;;;;;6.57;2.73;;;;;;;;;;5027378;28;20430;-68
2023/06/07 14:28:17;;;;;;;5.10;2.70;;;;;;;;;;5029100;28;20403;-68
2023/06/07 14:30:42;;;;;;;6.35;2.50;;;;;;;;;;5028015;28;20253;-69
2023/06/07 14:33:08;;;;;;;5.87;3.37;;;;;;;;;;5031033;28;20626;-68
2023/06/07 14:35:33;;;;;;;6.37;2.60;;;;;;;;;;5024794;28;20447;-70